sensor_id;sensor_type;location;lat;lon;timestamp;pressure;altitude;pressure_sealevel;temperature
69785;BMP280;14177;51.520;6.764;2022-12-08T00:01:19;100923.78;;;4.66
69785;BMP280;14177;51.520;6.764;2022-12-08T00:03:47;100910.91;;;4.66
69785;BMP280;14177;51.520;6.764;2022-12-08T00:06:32;100913.50;;;4.60
69785;BMP280;14177;51.520;6.764;2022-12-08T00:09:34;100914.38;;;4.59
69785;BMP280;14177;51.520;6.764;2022-12-08T00:12:12;100909.25;;;4.53
69785;BMP280;14177;51.520;6.764;2022-12-08T00:14:41;100901.53;;;4.55
69785;BMP280;14177;51.520;6.764;2022-12-08T00:17:10;100902.38;;;4.55
69785;BMP280;14177;51.520;6.764;2022-12-08T00:19:37;100900.69;;;4.54
69785;BMP280;14177;51.520;6.764;2022-12-08T00:22:06;100894.69;;;4.52
69785;BMP280;14177;51.520;6.764;2022-12-08T00:24:36;100882.69;;;4.53
69785;BMP280;14177;51.520;6.764;2022-12-08T00:27:08;100882.69;;;4.56
69785;BMP280;14177;51.520;6.764;2022-12-08T00:29:35;100882.66;;;4.54
69785;BMP280;14177;51.520;6.764;2022-12-08T00:32:03;100870.69;;;4.52
69785;BMP280;14177;51.520;6.764;2022-12-08T00:34:31;100883.53;;;4.50
69785;BMP280;14177;51.520;6.764;2022-12-08T00:36:58;100883.53;;;4.55
69785;BMP280;14177;51.520;6.764;2022-12-08T00:39:25;100880.97;;;4.55
69785;BMP280;14177;51.520;6.764;2022-12-08T00:41:51;100882.69;;;4.53
69785;BMP280;14177;51.520;6.764;2022-12-08T00:44:53;100880.97;;;4.55
69785;BMP280;14177;51.520;6.764;2022-12-08T00:47:20;100879.22;;;4.58
69785;BMP280;14177;51.520;6.764;2022-12-08T00:49:50;100876.66;;;4.58
69785;BMP280;14177;51.520;6.764;2022-12-08T00:52:17;100874.09;;;4.55
69785;BMP280;14177;51.520;6.764;2022-12-08T00:54:45;100871.50;;;4.55
69785;BMP280;14177;51.520;6.764;2022-12-08T00:57:12;100869.78;;;4.57
69785;BMP280;14177;51.520;6.764;2022-12-08T00:59:39;100856.94;;;4.57
69785;BMP280;14177;51.520;6.764;2022-12-08T01:02:05;100862.06;;;4.60
69785;BMP280;14177;51.520;6.764;2022-12-08T01:04:32;100854.34;;;4.57
69785;BMP280;14177;51.520;6.764;2022-12-08T01:06:59;100856.88;;;4.63
69785;BMP280;14177;51.520;6.764;2022-12-08T01:09:26;100841.47;;;4.65
69785;BMP280;14177;51.520;6.764;2022-12-08T01:11:52;100848.31;;;4.66
69785;BMP280;14177;51.520;6.764;2022-12-08T01:14:19;100854.31;;;4.66
69785;BMP280;14177;51.520;6.764;2022-12-08T01:16:46;100849.19;;;4.62
69785;BMP280;14177;51.520;6.764;2022-12-08T01:19:15;100850.91;;;4.61
69785;BMP280;14177;51.520;6.764;2022-12-08T01:21:43;100856.94;;;4.57
69785;BMP280;14177;51.520;6.764;2022-12-08T01:24:12;100851.81;;;4.56
69785;BMP280;14177;51.520;6.764;2022-12-08T01:26:40;100844.06;;;4.54
69785;BMP280;14177;51.520;6.764;2022-12-08T01:29:07;100837.22;;;4.50
69785;BMP280;14177;51.520;6.764;2022-12-08T01:31:33;100844.94;;;4.50
69785;BMP280;14177;51.520;6.764;2022-12-08T01:34:00;100849.25;;;4.48
69785;BMP280;14177;51.520;6.764;2022-12-08T01:36:30;100841.56;;;4.47
69785;BMP280;14177;51.520;6.764;2022-12-08T01:38:59;100840.69;;;4.43
69785;BMP280;14177;51.520;6.764;2022-12-08T01:41:31;100845.00;;;4.46
69785;BMP280;14177;51.520;6.764;2022-12-08T01:46:36;100843.25;;;4.48
69785;BMP280;14177;51.520;6.764;2022-12-08T01:49:15;100846.69;;;4.47
69785;BMP280;14177;51.520;6.764;2022-12-08T01:54:14;100840.69;;;4.46
69785;BMP280;14177;51.520;6.764;2022-12-08T01:56:47;100840.66;;;4.49
69785;BMP280;14177;51.520;6.764;2022-12-08T01:59:16;100838.97;;;4.45
69785;BMP280;14177;51.520;6.764;2022-12-08T02:01:49;100841.56;;;4.47
69785;BMP280;14177;51.520;6.764;2022-12-08T02:04:17;100835.56;;;4.48
69785;BMP280;14177;51.520;6.764;2022-12-08T02:06:44;100830.38;;;4.49
69785;BMP280;14177;51.520;6.764;2022-12-08T02:09:13;100829.53;;;4.52
69785;BMP280;14177;51.520;6.764;2022-12-08T02:11:40;100824.38;;;4.52
69785;BMP280;14177;51.520;6.764;2022-12-08T02:14:07;100816.63;;;4.53
69785;BMP280;14177;51.520;6.764;2022-12-08T02:17:01;100815.78;;;4.54
69785;BMP280;14177;51.520;6.764;2022-12-08T02:34:02;100800.34;;;4.54
69785;BMP280;14177;51.520;6.764;2022-12-08T02:44:55;100793.44;;;4.59
69785;BMP280;14177;51.520;6.764;2022-12-08T02:47:24;100778.00;;;4.61
69785;BMP280;14177;51.520;6.764;2022-12-08T02:49:54;100778.84;;;4.61
69785;BMP280;14177;51.520;6.764;2022-12-08T02:54:56;100777.16;;;4.62
69785;BMP280;14177;51.520;6.764;2022-12-08T03:00:10;100763.41;;;4.61
69785;BMP280;14177;51.520;6.764;2022-12-08T03:10:28;100759.97;;;4.62
69785;BMP280;14177;51.520;6.764;2022-12-08T03:13:02;100760.81;;;4.66
69785;BMP280;14177;51.520;6.764;2022-12-08T03:15:31;100746.19;;;4.69
69785;BMP280;14177;51.520;6.764;2022-12-08T03:17:58;100747.97;;;4.66
69785;BMP280;14177;51.520;6.764;2022-12-08T03:20:27;100738.50;;;4.66
69785;BMP280;14177;51.520;6.764;2022-12-08T03:22:57;100736.78;;;4.65
69785;BMP280;14177;51.520;6.764;2022-12-08T03:25:29;100735.94;;;4.66
69785;BMP280;14177;51.520;6.764;2022-12-08T03:27:58;100728.19;;;4.71
69785;BMP280;14177;51.520;6.764;2022-12-08T03:30:27;100729.91;;;4.70
69785;BMP280;14177;51.520;6.764;2022-12-08T03:33:08;100735.88;;;4.72
69785;BMP280;14177;51.520;6.764;2022-12-08T03:35:40;100730.75;;;4.72
69785;BMP280;14177;51.520;6.764;2022-12-08T03:38:11;100732.44;;;4.73
69785;BMP280;14177;51.520;6.764;2022-12-08T03:40:39;100717.84;;;4.73
69785;BMP280;14177;51.520;6.764;2022-12-08T03:43:06;100709.25;;;4.76
69785;BMP280;14177;51.520;6.764;2022-12-08T03:45:33;100712.66;;;4.76
69785;BMP280;14177;51.520;6.764;2022-12-08T03:48:00;100714.38;;;4.77
69785;BMP280;14177;51.520;6.764;2022-12-08T03:50:27;100706.69;;;4.76
69785;BMP280;14177;51.520;6.764;2022-12-08T03:52:54;100704.97;;;4.78
69785;BMP280;14177;51.520;6.764;2022-12-08T03:55:21;100698.09;;;4.77
69785;BMP280;14177;51.520;6.764;2022-12-08T03:57:47;100701.53;;;4.76
69785;BMP280;14177;51.520;6.764;2022-12-08T04:00:15;100696.38;;;4.74
69785;BMP280;14177;51.520;6.764;2022-12-08T04:02:42;100689.50;;;4.76
69785;BMP280;14177;51.520;6.764;2022-12-08T04:05:09;100684.38;;;4.78
69785;BMP280;14177;51.520;6.764;2022-12-08T04:07:36;100682.66;;;4.77
69785;BMP280;14177;51.520;6.764;2022-12-08T04:10:03;100688.63;;;4.77
69785;BMP280;14177;51.520;6.764;2022-12-08T04:12:31;100674.06;;;4.78
69785;BMP280;14177;51.520;6.764;2022-12-08T04:14:58;100680.06;;;4.78
69785;BMP280;14177;51.520;6.764;2022-12-08T04:17:24;100679.22;;;4.78
69785;BMP280;14177;51.520;6.764;2022-12-08T04:19:51;100673.22;;;4.79
69785;BMP280;14177;51.520;6.764;2022-12-08T04:22:18;100675.75;;;4.82
69785;BMP280;14177;51.520;6.764;2022-12-08T04:24:45;100664.63;;;4.78
69785;BMP280;14177;51.520;6.764;2022-12-08T04:27:11;100667.19;;;4.80
69785;BMP280;14177;51.520;6.764;2022-12-08T04:29:38;100665.47;;;4.79
69785;BMP280;14177;51.520;6.764;2022-12-08T04:32:05;100661.19;;;4.78
69785;BMP280;14177;51.520;6.764;2022-12-08T04:34:32;100660.34;;;4.79
69785;BMP280;14177;51.520;6.764;2022-12-08T04:36:59;100663.75;;;4.79
69785;BMP280;14177;51.520;6.764;2022-12-08T04:39:25;100663.75;;;4.79
69785;BMP280;14177;51.520;6.764;2022-12-08T04:41:52;100668.06;;;4.79
69785;BMP280;14177;51.520;6.764;2022-12-08T04:44:19;100663.78;;;4.78
69785;BMP280;14177;51.520;6.764;2022-12-08T04:46:46;100663.78;;;4.78
69785;BMP280;14177;51.520;6.764;2022-12-08T04:49:13;100655.19;;;4.79
69785;BMP280;14177;51.520;6.764;2022-12-08T04:51:39;100656.88;;;4.83
69785;BMP280;14177;51.520;6.764;2022-12-08T04:54:06;100656.88;;;4.83
69785;BMP280;14177;51.520;6.764;2022-12-08T04:56:33;100661.13;;;4.85
69785;BMP280;14177;51.520;6.764;2022-12-08T04:59:00;100659.44;;;4.83
69785;BMP280;14177;51.520;6.764;2022-12-08T05:01:26;100660.28;;;4.83
69785;BMP280;14177;51.520;6.764;2022-12-08T05:03:53;100652.56;;;4.83
69785;BMP280;14177;51.520;6.764;2022-12-08T05:06:20;100655.16;;;4.82
69785;BMP280;14177;51.520;6.764;2022-12-08T05:08:47;100656.84;;;4.86
69785;BMP280;14177;51.520;6.764;2022-12-08T05:11:14;100657.72;;;4.85
69785;BMP280;14177;51.520;6.764;2022-12-08T05:13:40;100646.53;;;4.84
69785;BMP280;14177;51.520;6.764;2022-12-08T05:16:10;100649.09;;;4.87
69785;BMP280;14177;51.520;6.764;2022-12-08T05:18:38;100646.53;;;4.86
69785;BMP280;14177;51.520;6.764;2022-12-08T05:21:06;100646.53;;;4.86
69785;BMP280;14177;51.520;6.764;2022-12-08T05:23:33;100646.50;;;4.89
69785;BMP280;14177;51.520;6.764;2022-12-08T05:26:00;100639.59;;;4.94
69785;BMP280;14177;51.520;6.764;2022-12-08T05:28:27;100650.78;;;4.90
69785;BMP280;14177;51.520;6.764;2022-12-08T05:31:14;100641.38;;;4.89
69785;BMP280;14177;51.520;6.764;2022-12-08T05:33:43;100650.81;;;4.87
69785;BMP280;14177;51.520;6.764;2022-12-08T05:36:12;100650.81;;;4.85
69785;BMP280;14177;51.520;6.764;2022-12-08T05:38:39;100643.97;;;4.86
69785;BMP280;14177;51.520;6.764;2022-12-08T05:41:07;100653.34;;;4.93
69785;BMP280;14177;51.520;6.764;2022-12-08T05:43:35;100645.66;;;4.88
69785;BMP280;14177;51.520;6.764;2022-12-08T05:46:01;100645.66;;;4.85
69785;BMP280;14177;51.520;6.764;2022-12-08T05:48:29;100641.41;;;4.83
69785;BMP280;14177;51.520;6.764;2022-12-08T05:50:55;100644.00;;;4.83
69785;BMP280;14177;51.520;6.764;2022-12-08T05:53:22;100631.13;;;4.81
69785;BMP280;14177;51.520;6.764;2022-12-08T05:55:49;100634.59;;;4.79
69785;BMP280;14177;51.520;6.764;2022-12-08T05:58:18;100625.16;;;4.78
69785;BMP280;14177;51.520;6.764;2022-12-08T06:00:46;100629.47;;;4.76
69785;BMP280;14177;51.520;6.764;2022-12-08T06:03:16;100626.03;;;4.77
69785;BMP280;14177;51.520;6.764;2022-12-08T06:05:45;100625.16;;;4.76
69785;BMP280;14177;51.520;6.764;2022-12-08T06:08:12;100615.69;;;4.81
69785;BMP280;14177;51.520;6.764;2022-12-08T06:10:40;100620.00;;;4.81
69785;BMP280;14177;51.520;6.764;2022-12-08T06:13:08;100619.09;;;4.85
69785;BMP280;14177;51.520;6.764;2022-12-08T06:15:36;100616.53;;;4.83
69785;BMP280;14177;51.520;6.764;2022-12-08T06:18:04;100619.13;;;4.82
69785;BMP280;14177;51.520;6.764;2022-12-08T06:20:33;100619.13;;;4.82
69785;BMP280;14177;51.520;6.764;2022-12-08T06:23:01;100617.44;;;4.78
69785;BMP280;14177;51.520;6.764;2022-12-08T06:25:29;100622.59;;;4.78
69785;BMP280;14177;51.520;6.764;2022-12-08T06:27:57;100614.88;;;4.78
69785;BMP280;14177;51.520;6.764;2022-12-08T06:30:24;100620.03;;;4.76
69785;BMP280;14177;51.520;6.764;2022-12-08T06:32:51;100623.44;;;4.78
69785;BMP280;14177;51.520;6.764;2022-12-08T06:35:19;100623.47;;;4.77
69785;BMP280;14177;51.520;6.764;2022-12-08T06:37:47;100638.00;;;4.81
69785;BMP280;14177;51.520;6.764;2022-12-08T06:40:17;100629.47;;;4.76
69785;BMP280;14177;51.520;6.764;2022-12-08T06:42:44;100626.94;;;4.73
69785;BMP280;14177;51.520;6.764;2022-12-08T06:45:14;100623.50;;;4.74
69785;BMP280;14177;51.520;6.764;2022-12-08T06:47:41;100620.09;;;4.72
69785;BMP280;14177;51.520;6.764;2022-12-08T06:50:09;100616.66;;;4.70
69785;BMP280;14177;51.520;6.764;2022-12-08T06:52:36;100621.81;;;4.72
69785;BMP280;14177;51.520;6.764;2022-12-08T06:55:18;100617.44;;;4.76
69785;BMP280;14177;51.520;6.764;2022-12-08T06:58:05;100610.63;;;4.74
69785;BMP280;14177;51.520;6.764;2022-12-08T07:00:32;100620.88;;;4.77
69785;BMP280;14177;51.520;6.764;2022-12-08T07:02:59;100614.03;;;4.76
69785;BMP280;14177;51.520;6.764;2022-12-08T07:05:26;100613.16;;;4.77
69785;BMP280;14177;51.520;6.764;2022-12-08T07:07:54;100615.75;;;4.77
69785;BMP280;14177;51.520;6.764;2022-12-08T07:10:22;100620.03;;;4.76
69785;BMP280;14177;51.520;6.764;2022-12-08T07:12:52;100619.16;;;4.77
69785;BMP280;14177;51.520;6.764;2022-12-08T07:15:20;100620.06;;;4.75
69785;BMP280;14177;51.520;6.764;2022-12-08T07:17:47;100627.75;;;4.78
69785;BMP280;14177;51.520;6.764;2022-12-08T07:20:26;100620.94;;;4.74
69785;BMP280;14177;51.520;6.764;2022-12-08T07:22:53;100627.78;;;4.75
69785;BMP280;14177;51.520;6.764;2022-12-08T07:25:20;100625.22;;;4.72
69785;BMP280;14177;51.520;6.764;2022-12-08T07:27:48;100624.38;;;4.70
69785;BMP280;14177;51.520;6.764;2022-12-08T07:30:17;100626.94;;;4.73
69785;BMP280;14177;51.520;6.764;2022-12-08T07:32:45;100626.94;;;4.73
69785;BMP280;14177;51.520;6.764;2022-12-08T07:35:12;100633.75;;;4.75
69785;BMP280;14177;51.520;6.764;2022-12-08T07:37:39;100629.53;;;4.72
69785;BMP280;14177;51.520;6.764;2022-12-08T07:40:07;100634.75;;;4.66
69785;BMP280;14177;51.520;6.764;2022-12-08T07:42:37;100624.47;;;4.61
69785;BMP280;14177;51.520;6.764;2022-12-08T07:45:04;100634.78;;;4.63
69785;BMP280;14177;51.520;6.764;2022-12-08T07:47:32;100619.34;;;4.61
69785;BMP280;14177;51.520;6.764;2022-12-08T07:49:59;100630.47;;;4.60
69785;BMP280;14177;51.520;6.764;2022-12-08T07:52:28;100638.19;;;4.63
69785;BMP280;14177;51.520;6.764;2022-12-08T07:54:56;100630.53;;;4.59
69785;BMP280;14177;51.520;6.764;2022-12-08T07:57:22;100630.50;;;4.57
69785;BMP280;14177;51.520;6.764;2022-12-08T07:59:50;100629.69;;;4.54
69785;BMP280;14177;51.520;6.764;2022-12-08T08:02:18;100634.88;;;4.49
69785;BMP280;14177;51.520;6.764;2022-12-08T08:04:51;100619.44;;;4.49
69785;BMP280;14177;51.520;6.764;2022-12-08T08:07:19;100620.34;;;4.47
69785;BMP280;14177;51.520;6.764;2022-12-08T08:09:47;100615.25;;;4.41
69785;BMP280;14177;51.520;6.764;2022-12-08T08:12:14;100623.81;;;4.40
69785;BMP280;14177;51.520;6.764;2022-12-08T08:14:59;100620.34;;;4.42
69785;BMP280;14177;51.520;6.764;2022-12-08T08:17:27;100625.47;;;4.45
69785;BMP280;14177;51.520;6.764;2022-12-08T08:19:56;100622.03;;;4.46
69785;BMP280;14177;51.520;6.764;2022-12-08T08:22:24;100622.91;;;4.45
69785;BMP280;14177;51.520;6.764;2022-12-08T08:24:53;100621.19;;;4.46
69785;BMP280;14177;51.520;6.764;2022-12-08T08:27:20;100624.59;;;4.46
69785;BMP280;14177;51.520;6.764;2022-12-08T08:29:47;100634.88;;;4.49
69785;BMP280;14177;51.520;6.764;2022-12-08T08:32:14;100637.44;;;4.49
69785;BMP280;14177;51.520;6.764;2022-12-08T08:34:41;100634.88;;;4.49
69785;BMP280;14177;51.520;6.764;2022-12-08T08:37:10;100637.44;;;4.54
69785;BMP280;14177;51.520;6.764;2022-12-08T08:39:41;100633.13;;;4.54
69785;BMP280;14177;51.520;6.764;2022-12-08T08:42:08;100626.25;;;4.53
69785;BMP280;14177;51.520;6.764;2022-12-08T08:44:35;100633.13;;;4.51
69785;BMP280;14177;51.520;6.764;2022-12-08T08:47:05;100634.84;;;4.52
69785;BMP280;14177;51.520;6.764;2022-12-08T08:49:36;100628.88;;;4.52
69785;BMP280;14177;51.520;6.764;2022-12-08T08:52:04;100634.84;;;4.52
69785;BMP280;14177;51.520;6.764;2022-12-08T08:54:32;100631.47;;;4.47
69785;BMP280;14177;51.520;6.764;2022-12-08T08:57:00;100635.78;;;4.44
69785;BMP280;14177;51.520;6.764;2022-12-08T08:59:30;100637.53;;;4.42
69785;BMP280;14177;51.520;6.764;2022-12-08T09:02:00;100633.22;;;4.44
69785;BMP280;14177;51.520;6.764;2022-12-08T09:04:29;100643.50;;;4.42
69785;BMP280;14177;51.520;6.764;2022-12-08T09:06:59;100636.66;;;4.41
69785;BMP280;14177;51.520;6.764;2022-12-08T09:09:29;100643.53;;;4.41
69785;BMP280;14177;51.520;6.764;2022-12-08T09:11:58;100640.09;;;4.40
69785;BMP280;14177;51.520;6.764;2022-12-08T09:14:25;100635.81;;;4.41
69785;BMP280;14177;51.520;6.764;2022-12-08T09:16:53;100641.81;;;4.38
69785;BMP280;14177;51.520;6.764;2022-12-08T09:19:20;100637.53;;;4.37
69785;BMP280;14177;51.520;6.764;2022-12-08T09:21:48;100644.41;;;4.37
69785;BMP280;14177;51.520;6.764;2022-12-08T09:24:15;100640.13;;;4.37
69785;BMP280;14177;51.520;6.764;2022-12-08T09:26:44;100640.13;;;4.39
69785;BMP280;14177;51.520;6.764;2022-12-08T09:29:15;100638.34;;;4.42
69785;BMP280;14177;51.520;6.764;2022-12-08T09:31:43;100647.78;;;4.45
69785;BMP280;14177;51.520;6.764;2022-12-08T09:34:11;100645.19;;;4.46
69785;BMP280;14177;51.520;6.764;2022-12-08T09:36:39;100640.03;;;4.48
69785;BMP280;14177;51.520;6.764;2022-12-08T09:39:06;100644.31;;;4.49
69785;BMP280;14177;51.520;6.764;2022-12-08T09:41:36;100634.84;;;4.52
69785;BMP280;14177;51.520;6.764;2022-12-08T09:47:22;100634.78;;;4.58
69785;BMP280;14177;51.520;6.764;2022-12-08T09:50:21;100643.34;;;4.60
69785;BMP280;14177;51.520;6.764;2022-12-08T09:53:01;100636.53;;;4.56
69785;BMP280;14177;51.520;6.764;2022-12-08T09:55:51;100639.94;;;4.58
69785;BMP280;14177;51.520;6.764;2022-12-08T10:01:09;100636.50;;;4.59
69785;BMP280;14177;51.520;6.764;2022-12-08T10:03:39;100630.53;;;4.59
69785;BMP280;14177;51.520;6.764;2022-12-08T10:08:44;100635.69;;;4.56
69785;BMP280;14177;51.520;6.764;2022-12-08T10:11:18;100630.53;;;4.56
69785;BMP280;14177;51.520;6.764;2022-12-08T10:14:02;100639.94;;;4.58
69785;BMP280;14177;51.520;6.764;2022-12-08T10:16:38;100625.34;;;4.60
69785;BMP280;14177;51.520;6.764;2022-12-08T10:19:17;100626.16;;;4.65
69785;BMP280;14177;51.520;6.764;2022-12-08T10:21:44;100623.59;;;4.67
69785;BMP280;14177;51.520;6.764;2022-12-08T10:24:17;100629.59;;;4.64
69785;BMP280;14177;51.520;6.764;2022-12-08T10:26:48;100621.06;;;4.59
69785;BMP280;14177;51.520;6.764;2022-12-08T10:29:15;100617.69;;;4.54
69785;BMP280;14177;51.520;6.764;2022-12-08T10:31:42;100622.81;;;4.54
69785;BMP280;14177;51.520;6.764;2022-12-08T10:34:22;100613.41;;;4.53
69785;BMP280;14177;51.520;6.764;2022-12-08T10:36:56;100609.13;;;4.52
69785;BMP280;14177;51.520;6.764;2022-12-08T10:42:20;100604.88;;;4.48
69785;BMP280;14177;51.520;6.764;2022-12-08T10:47:19;100612.56;;;4.51
69785;BMP280;14177;51.520;6.764;2022-12-08T10:50:04;100606.53;;;4.52
69785;BMP280;14177;51.520;6.764;2022-12-08T10:52:37;100605.69;;;4.53
69785;BMP280;14177;51.520;6.764;2022-12-08T10:55:13;100601.41;;;4.54
69785;BMP280;14177;51.520;6.764;2022-12-08T10:57:40;100602.25;;;4.54
69785;BMP280;14177;51.520;6.764;2022-12-08T11:00:12;100598.78;;;4.58
69785;BMP280;14177;51.520;6.764;2022-12-08T11:02:59;100604.72;;;4.63
69785;BMP280;14177;51.520;6.764;2022-12-08T11:05:30;100596.19;;;4.60
69785;BMP280;14177;51.520;6.764;2022-12-08T11:07:57;100599.59;;;4.65
69785;BMP280;14177;51.520;6.764;2022-12-08T11:10:33;100591.88;;;4.63
69785;BMP280;14177;51.520;6.764;2022-12-08T11:13:03;100598.72;;;4.64
69785;BMP280;14177;51.520;6.764;2022-12-08T11:15:34;100587.63;;;4.61
69785;BMP280;14177;51.520;6.764;2022-12-08T11:18:17;100589.25;;;4.66
69785;BMP280;14177;51.520;6.764;2022-12-08T11:20:45;100574.66;;;4.68
69785;BMP280;14177;51.520;6.764;2022-12-08T11:23:20;100578.91;;;4.72
69785;BMP280;14177;51.520;6.764;2022-12-08T11:25:48;100575.44;;;4.76
69785;BMP280;14177;51.520;6.764;2022-12-08T11:28:21;100574.56;;;4.77
69785;BMP280;14177;51.520;6.764;2022-12-08T11:30:53;100571.13;;;4.76
69785;BMP280;14177;51.520;6.764;2022-12-08T11:33:24;100579.78;;;4.71
69785;BMP280;14177;51.520;6.764;2022-12-08T11:36:02;100571.22;;;4.71
69785;BMP280;14177;51.520;6.764;2022-12-08T11:38:30;100568.66;;;4.69
69785;BMP280;14177;51.520;6.764;2022-12-08T11:41:16;100572.06;;;4.73
69785;BMP280;14177;51.520;6.764;2022-12-08T11:44:01;100575.41;;;4.77
69785;BMP280;14177;51.520;6.764;2022-12-08T11:46:37;100571.19;;;4.72
69785;BMP280;14177;51.520;6.764;2022-12-08T11:49:11;100578.09;;;4.67
69785;BMP280;14177;51.520;6.764;2022-12-08T11:51:44;100568.72;;;4.65
69785;BMP280;14177;51.520;6.764;2022-12-08T11:56:48;100567.00;;;4.62
69785;BMP280;14177;51.520;6.764;2022-12-08T11:59:38;100570.44;;;4.61
69785;BMP280;14177;51.520;6.764;2022-12-08T12:02:35;100575.63;;;4.58
69785;BMP280;14177;51.520;6.764;2022-12-08T12:05:30;100562.00;;;4.49
69785;BMP280;14177;51.520;6.764;2022-12-08T12:08:38;100567.22;;;4.43
69785;BMP280;14177;51.520;6.764;2022-12-08T12:11:10;100570.63;;;4.45
69785;BMP280;14177;51.520;6.764;2022-12-08T12:14:10;100567.22;;;4.38
69785;BMP280;14177;51.520;6.764;2022-12-08T12:16:54;100569.84;;;4.37
69785;BMP280;14177;51.520;6.764;2022-12-08T12:19:26;100562.97;;;4.37
69785;BMP280;14177;51.520;6.764;2022-12-08T12:21:56;100559.53;;;4.38
69785;BMP280;14177;51.520;6.764;2022-12-08T12:24:24;100566.38;;;4.39
69785;BMP280;14177;51.520;6.764;2022-12-08T12:27:01;100566.31;;;4.45
69785;BMP280;14177;51.520;6.764;2022-12-08T12:29:33;100562.84;;;4.51
69785;BMP280;14177;51.520;6.764;2022-12-08T12:32:11;100563.69;;;4.51
69785;BMP280;14177;51.520;6.764;2022-12-08T12:34:48;100557.69;;;4.49
69785;BMP280;14177;51.520;6.764;2022-12-08T12:37:25;100564.59;;;4.49
69785;BMP280;14177;51.520;6.764;2022-12-08T12:40:02;100561.97;;;4.50
69785;BMP280;14177;51.520;6.764;2022-12-08T12:53:02;100558.63;;;4.42
69785;BMP280;14177;51.520;6.764;2022-12-08T13:03:44;100561.22;;;4.39
69785;BMP280;14177;51.520;6.764;2022-12-08T13:06:14;100556.94;;;4.40
69785;BMP280;14177;51.520;6.764;2022-12-08T13:08:51;100558.69;;;4.38
69785;BMP280;14177;51.520;6.764;2022-12-08T13:11:19;100557.00;;;4.35
69785;BMP280;14177;51.520;6.764;2022-12-08T13:14:00;100555.28;;;4.36
69785;BMP280;14177;51.520;6.764;2022-12-08T13:16:34;100555.22;;;4.40
69785;BMP280;14177;51.520;6.764;2022-12-08T13:19:03;100551.75;;;4.46
69785;BMP280;14177;51.520;6.764;2022-12-08T13:21:35;100552.56;;;4.49
69785;BMP280;14177;51.520;6.764;2022-12-08T13:26:47;100547.38;;;4.52
69785;BMP280;14177;51.520;6.764;2022-12-08T13:29:24;100546.53;;;4.52
69785;BMP280;14177;51.520;6.764;2022-12-08T13:31:53;100543.13;;;4.50
69785;BMP280;14177;51.520;6.764;2022-12-08T13:34:23;100548.28;;;4.48
69785;BMP280;14177;51.520;6.764;2022-12-08T13:39:28;100531.09;;;4.52
69785;BMP280;14177;51.520;6.764;2022-12-08T13:42:02;100532.81;;;4.51
69785;BMP280;14177;51.520;6.764;2022-12-08T13:44:53;100536.28;;;4.47
69785;BMP280;14177;51.520;6.764;2022-12-08T13:48:05;100539.72;;;4.48
69785;BMP280;14177;51.520;6.764;2022-12-08T13:51:04;100537.16;;;4.46
69785;BMP280;14177;51.520;6.764;2022-12-08T13:54:09;100536.25;;;4.50
69785;BMP280;14177;51.520;6.764;2022-12-08T13:56:58;100530.28;;;4.50
69785;BMP280;14177;51.520;6.764;2022-12-08T13:59:42;100526.81;;;4.52
69785;BMP280;14177;51.520;6.764;2022-12-08T14:02:19;100526.81;;;4.54
69785;BMP280;14177;51.520;6.764;2022-12-08T14:04:47;100526.78;;;4.55
69785;BMP280;14177;51.520;6.764;2022-12-08T14:07:34;100517.31;;;4.59
69785;BMP280;14177;51.520;6.764;2022-12-08T14:10:07;100526.72;;;4.61
69785;BMP280;14177;51.520;6.764;2022-12-08T14:12:35;100525.03;;;4.57
69785;BMP280;14177;51.520;6.764;2022-12-08T14:15:04;100524.16;;;4.58
69785;BMP280;14177;51.520;6.764;2022-12-08T14:17:32;100523.31;;;4.56
69785;BMP280;14177;51.520;6.764;2022-12-08T14:20:01;100519.88;;;4.57
69785;BMP280;14177;51.520;6.764;2022-12-08T14:22:32;100519.88;;;4.59
69785;BMP280;14177;51.520;6.764;2022-12-08T14:25:00;100514.72;;;4.60
69785;BMP280;14177;51.520;6.764;2022-12-08T14:27:34;100519.00;;;4.61
69785;BMP280;14177;51.520;6.764;2022-12-08T14:32:47;100531.00;;;4.61
69785;BMP280;14177;51.520;6.764;2022-12-08T14:37:49;100524.19;;;4.57
69785;BMP280;14177;51.520;6.764;2022-12-08T14:42:51;100531.94;;;4.54
69785;BMP280;14177;51.520;6.764;2022-12-08T14:45:19;100525.94;;;4.55
69785;BMP280;14177;51.520;6.764;2022-12-08T14:47:46;100523.41;;;4.50
69785;BMP280;14177;51.520;6.764;2022-12-08T14:53:24;100522.53;;;4.51
69785;BMP280;14177;51.520;6.764;2022-12-08T14:55:51;100522.56;;;4.50
69785;BMP280;14177;51.520;6.764;2022-12-08T14:58:26;100517.44;;;4.45
69785;BMP280;14177;51.520;6.764;2022-12-08T15:00:56;100514.03;;;4.43
69785;BMP280;14177;51.520;6.764;2022-12-08T15:03:29;100520.91;;;4.41
69785;BMP280;14177;51.520;6.764;2022-12-08T15:05:58;100525.16;;;4.45
69785;BMP280;14177;51.520;6.764;2022-12-08T15:08:26;100521.78;;;4.42
69785;BMP280;14177;51.520;6.764;2022-12-08T15:13:49;100515.00;;;4.36
69785;BMP280;14177;51.520;6.764;2022-12-08T15:16:28;100523.50;;;4.38
69785;BMP280;14177;51.520;6.764;2022-12-08T15:19:16;100521.78;;;4.40
69785;BMP280;14177;51.520;6.764;2022-12-08T15:21:44;100520.91;;;4.43
69785;BMP280;14177;51.520;6.764;2022-12-08T15:24:12;100525.16;;;4.45
69785;BMP280;14177;51.520;6.764;2022-12-08T15:26:47;100523.41;;;4.47
69785;BMP280;14177;51.520;6.764;2022-12-08T15:29:23;100519.16;;;4.48
69785;BMP280;14177;51.520;6.764;2022-12-08T15:31:52;100523.41;;;4.50
69785;BMP280;14177;51.520;6.764;2022-12-08T15:34:19;100512.28;;;4.50
69785;BMP280;14177;51.520;6.764;2022-12-08T15:36:48;100519.97;;;4.48
69785;BMP280;14177;51.520;6.764;2022-12-08T15:41:59;100514.84;;;4.48
69785;BMP280;14177;51.520;6.764;2022-12-08T15:44:26;100515.72;;;4.49
69785;BMP280;14177;51.520;6.764;2022-12-08T15:46:59;100516.56;;;4.46
69785;BMP280;14177;51.520;6.764;2022-12-08T15:49:27;100522.56;;;4.50
69785;BMP280;14177;51.520;6.764;2022-12-08T15:51:54;100518.25;;;4.50
69785;BMP280;14177;51.520;6.764;2022-12-08T15:54:36;100517.41;;;4.50
69785;BMP280;14177;51.520;6.764;2022-12-08T15:57:03;100525.09;;;4.53
69785;BMP280;14177;51.520;6.764;2022-12-08T15:59:51;100523.38;;;4.53
69785;BMP280;14177;51.520;6.764;2022-12-08T16:02:18;100515.63;;;4.53
69785;BMP280;14177;51.520;6.764;2022-12-08T16:04:48;100527.63;;;4.54
69785;BMP280;14177;51.520;6.764;2022-12-08T16:07:35;100513.94;;;4.54
69785;BMP280;14177;51.520;6.764;2022-12-08T16:10:05;100527.63;;;4.56